createdAt,value
2019-01-18T16:45:32.725Z,0.25
2019-01-18T16:45:51.823Z,0.25
2019-01-18T16:51:07.008Z,0.25
2019-01-18T16:51:26.124Z,0.25
2019-01-18T16:53:03.044Z,0.25
2019-01-18T16:53:05.881Z,0.25
2019-01-18T16:53:22.119Z,0.25
2019-01-18T16:55:05.079Z,0.25
2019-01-18T16:57:05.209Z,0.25
2019-01-18T16:59:05.265Z,0.25
2019-01-18T17:01:05.146Z,0.25
2019-01-18T17:03:06.195Z,0.25
2019-01-18T17:05:06.041Z,0.25
2019-01-18T17:07:05.192Z,0.25
2019-01-18T17:08:22.069Z,0.25
2019-01-18T17:09:05.570Z,0.25
2019-01-18T17:11:05.101Z,0.19
2019-01-18T17:13:05.125Z,0.19
2019-01-18T17:15:05.279Z,0.19
2019-01-18T17:17:05.125Z,0.19
2019-01-18T17:19:06.010Z,0.19
2019-01-18T17:21:05.233Z,0.13
2019-01-18T17:23:05.207Z,0.19
2019-01-18T17:23:22.008Z,0.19
2019-01-18T17:25:05.345Z,0.19
2019-01-18T17:27:05.119Z,0.13
2019-01-18T17:29:05.102Z,0.19
2019-01-18T17:31:05.303Z,0.19
2019-01-18T17:33:05.041Z,0.13
2019-01-18T17:35:05.055Z,0.13
2019-01-18T17:37:06.176Z,0.19
2019-01-18T17:38:22.133Z,0.19
2019-01-18T17:39:05.199Z,0.19
2019-01-18T17:41:05.142Z,0.19
2019-01-18T17:43:05.207Z,0.19
2019-01-18T17:45:05.252Z,0.19
2019-01-18T17:47:05.141Z,0.25
2019-01-18T17:49:05.128Z,0.19
2019-01-18T17:51:08.988Z,0.19
2019-01-18T17:53:05.141Z,0.19
2019-01-18T17:53:22.123Z,0.19
2019-01-18T17:55:05.326Z,0.19
2019-01-18T17:57:05.171Z,0.19
2019-01-18T17:59:05.124Z,0.19
2019-01-18T18:01:05.176Z,0.19
2019-01-18T18:03:05.189Z,0.13
2019-01-18T18:05:05.278Z,0.13
2019-01-18T18:07:05.137Z,0.06
2019-01-18T18:08:22.241Z,0.06
2019-01-18T18:09:05.964Z,0.06
2019-01-18T18:11:05.278Z,0
2019-01-18T18:13:05.278Z,0
2019-01-18T18:15:05.204Z,-0.06
2019-01-18T18:17:05.192Z,-0.06
2019-01-18T18:19:05.206Z,-0.06
2019-01-18T18:21:06.299Z,-0.06
2019-01-18T18:23:05.251Z,-0.13
2019-01-18T18:23:22.100Z,-0.13
2019-01-18T18:25:05.064Z,-0.13
2019-01-18T18:27:06.026Z,-0.06
2019-01-18T18:29:05.330Z,-0.13
2019-01-18T18:31:05.064Z,-0.13
2019-01-18T18:33:05.102Z,-0.19
2019-01-18T18:35:05.195Z,-0.19
2019-01-18T18:37:05.132Z,-0.19
2019-01-18T18:38:22.032Z,-0.19
2019-01-18T18:39:06.052Z,-0.19
2019-01-18T18:41:05.186Z,-0.25
2019-01-18T18:43:05.063Z,-0.19
2019-01-18T18:45:06.030Z,-0.19
2019-01-18T18:47:05.083Z,-0.19
2019-01-18T18:49:06.020Z,-0.31
2019-01-18T18:51:05.156Z,-0.31
2019-01-18T18:53:05.063Z,-0.31
2019-01-18T18:53:22.017Z,-0.31
2019-01-18T18:55:05.169Z,-0.38
2019-01-18T18:57:05.178Z,-0.38
2019-01-18T18:59:05.065Z,-0.38
2019-01-18T19:01:05.112Z,-0.38
2019-01-18T19:03:05.115Z,-0.44
2019-01-18T19:05:06.027Z,-0.5
2019-01-18T19:07:06.032Z,-0.44
2019-01-18T19:08:22.109Z,-0.5
2019-01-18T19:09:05.141Z,-0.5
2019-01-18T19:11:05.106Z,-0.5
2019-01-18T19:13:05.214Z,-0.56
2019-01-18T19:15:05.071Z,-0.56
2019-01-18T19:17:05.112Z,-0.56
2019-01-18T19:19:05.159Z,-0.56
2019-01-18T19:21:05.067Z,-0.56
2019-01-18T19:23:05.167Z,-0.56
2019-01-18T19:23:22.090Z,-0.56
2019-01-18T19:25:05.254Z,-0.5
2019-01-18T19:27:06.045Z,-0.56
2019-01-18T19:29:05.152Z,-0.56
2019-01-18T19:31:05.050Z,-0.63
2019-01-18T19:33:05.059Z,-0.63
2019-01-18T19:35:05.182Z,-0.63
2019-01-18T19:37:05.165Z,-0.63
2019-01-18T19:38:22.091Z,-0.69
2019-01-18T19:39:05.175Z,-0.69
2019-01-18T19:41:05.098Z,-0.69
2019-01-18T19:43:05.129Z,-0.69
2019-01-18T19:45:05.183Z,-0.69
2019-01-18T19:47:05.213Z,-0.69
2019-01-18T19:49:05.168Z,-0.69
2019-01-18T19:51:05.170Z,-0.69
2019-01-18T19:53:05.189Z,-0.69
2019-01-18T19:53:22.101Z,-0.69
2019-01-18T19:55:05.068Z,-0.63
2019-01-18T19:57:05.180Z,-0.63
2019-01-18T19:59:05.114Z,-0.63
2019-01-18T20:01:05.127Z,-0.63
2019-01-18T20:03:05.174Z,-0.63
2019-01-18T20:05:05.171Z,-0.63
2019-01-18T20:07:05.165Z,-0.56
2019-01-18T20:08:22.125Z,-0.56
2019-01-18T20:09:05.070Z,-0.63
2019-01-18T20:11:05.183Z,-0.63
2019-01-18T20:13:07.214Z,-0.63
2019-01-18T20:15:05.115Z,-0.69
2019-01-18T20:17:05.152Z,-0.69
2019-01-18T20:19:06.030Z,-0.69
2019-01-18T20:21:05.180Z,-0.69
2019-01-18T20:23:05.059Z,-0.75
2019-01-18T20:23:22.060Z,-0.75
2019-01-18T20:25:05.050Z,-0.75
2019-01-18T20:27:05.079Z,-0.75
2019-01-18T20:29:05.182Z,-0.75
2019-01-18T20:31:05.135Z,-0.75
2019-01-18T20:33:05.182Z,-0.81
2019-01-18T20:35:05.106Z,-0.75
2019-01-18T20:37:05.133Z,-0.75
2019-01-18T20:38:22.016Z,-0.75
2019-01-18T20:39:05.085Z,-0.81
2019-01-18T20:41:05.163Z,-0.81
2019-01-18T20:43:05.137Z,-0.81
2019-01-18T20:45:05.131Z,-0.81
2019-01-18T20:47:05.200Z,-0.81
2019-01-18T20:49:05.058Z,-0.88
2019-01-18T20:51:05.068Z,-0.94
2019-01-18T20:53:05.168Z,-0.94
2019-01-18T20:53:22.073Z,-0.94
2019-01-18T20:55:05.107Z,-0.94
2019-01-18T20:57:05.134Z,-0.94
2019-01-18T20:59:05.169Z,-0.94
2019-01-18T21:01:05.053Z,-1
2019-01-18T21:03:06.019Z,-0.94
2019-01-18T21:05:05.192Z,-1
2019-01-18T21:07:05.147Z,-1.06
2019-01-18T21:08:22.145Z,-1.06
2019-01-18T21:09:05.116Z,-1
2019-01-18T21:11:05.166Z,-1.06
2019-01-18T21:13:05.129Z,-1.06
2019-01-18T21:15:05.178Z,-1.06
2019-01-18T21:17:05.043Z,-1.06
2019-01-18T21:19:05.059Z,-1.06
2019-01-18T21:21:05.171Z,-1
2019-01-18T21:23:06.056Z,-0.94
2019-01-18T21:23:22.130Z,-0.94
2019-01-18T21:25:05.186Z,-0.94
2019-01-18T21:27:05.146Z,-1
2019-01-18T21:29:05.120Z,-1
2019-01-18T21:31:05.132Z,-1.06
2019-01-18T21:33:06.049Z,-1
2019-01-18T21:35:05.101Z,-1.06
2019-01-18T21:37:05.186Z,-1.06
2019-01-18T21:38:22.107Z,-1.06
2019-01-18T21:39:05.086Z,-1.06
2019-01-18T21:41:05.120Z,-1.06
2019-01-18T21:43:05.167Z,-1
2019-01-18T21:45:05.287Z,-1.06
2019-01-18T21:47:05.107Z,-1.06
2019-01-18T21:49:06.025Z,-1.06
2019-01-18T21:51:05.073Z,-1.06
2019-01-18T21:53:05.174Z,-1.13
2019-01-18T21:53:22.082Z,-1.13
2019-01-18T21:55:05.280Z,-1.13
2019-01-18T21:57:05.114Z,-1.13
2019-01-18T21:59:05.080Z,-1.13
2019-01-18T22:01:05.204Z,-1.13
2019-01-18T22:03:05.168Z,-1.06
2019-01-18T22:05:05.121Z,-1.06
2019-01-18T22:07:05.054Z,-1.06
2019-01-18T22:08:22.082Z,-1.13
2019-01-18T22:09:05.124Z,-1.13
2019-01-18T22:11:05.226Z,-1.13
2019-01-18T22:13:05.088Z,-1.13
2019-01-18T22:15:05.088Z,-1.06
2019-01-18T22:17:05.142Z,-1.13
2019-01-18T22:19:06.029Z,-1.13
2019-01-18T22:21:06.033Z,-1.13
2019-01-18T22:23:05.201Z,-1.13
2019-01-18T22:23:22.086Z,-1.13
2019-01-18T22:25:05.166Z,-1.13
2019-01-18T22:27:05.047Z,-1.13
2019-01-18T22:29:05.121Z,-1.13
2019-01-18T22:31:05.112Z,-1.13
2019-01-18T22:33:05.064Z,-1.13
2019-01-18T22:35:05.111Z,-1.13
2019-01-18T22:37:05.026Z,-1.19
2019-01-18T22:38:22.125Z,-1.19
2019-01-18T22:39:05.110Z,-1.25
2019-01-18T22:41:05.164Z,-1.25
2019-01-18T22:43:05.122Z,-1.19
2019-01-18T22:45:05.138Z,-1.25
2019-01-18T22:47:05.169Z,-1.19
2019-01-18T22:49:05.177Z,-1.25
2019-01-18T22:51:05.071Z,-1.25
2019-01-18T22:53:05.112Z,-1.25
2019-01-18T22:53:22.170Z,-1.25
2019-01-18T22:55:05.121Z,-1.25
2019-01-18T22:57:05.123Z,-1.25
2019-01-18T22:59:05.071Z,-1.31
2019-01-18T23:01:06.092Z,-1.38
2019-01-18T23:03:05.113Z,-1.38
2019-01-18T23:05:05.357Z,-1.38
2019-01-18T23:07:05.129Z,-1.44
2019-01-18T23:08:22.363Z,-1.44
2019-01-18T23:09:05.101Z,-1.44
2019-01-18T23:11:05.298Z,-1.44
2019-01-18T23:13:05.237Z,-1.44
2019-01-18T23:15:05.173Z,-1.44
2019-01-18T23:17:05.163Z,-1.44
2019-01-18T23:19:05.165Z,-1.5
2019-01-18T23:21:05.157Z,-1.5
2019-01-18T23:23:05.090Z,-1.5
2019-01-18T23:23:22.285Z,-1.5
2019-01-18T23:25:05.377Z,-1.5
2019-01-18T23:27:05.062Z,-1.5
2019-01-18T23:29:05.286Z,-1.5
2019-01-18T23:31:05.047Z,-1.5
2019-01-18T23:33:05.190Z,-1.5
2019-01-18T23:35:05.108Z,-1.44
2019-01-18T23:37:05.130Z,-1.5
2019-01-18T23:38:22.126Z,-1.5
2019-01-18T23:39:05.127Z,-1.5
2019-01-18T23:41:06.091Z,-1.44
2019-01-18T23:43:05.312Z,-1.5
2019-01-18T23:45:06.031Z,-1.5
2019-01-18T23:47:06.141Z,-1.5
2019-01-18T23:49:05.120Z,-1.56
2019-01-18T23:51:05.133Z,-1.5
2019-01-18T23:53:05.153Z,-1.5
2019-01-18T23:53:22.107Z,-1.5
2019-01-18T23:55:05.289Z,-1.5
2019-01-18T23:57:05.161Z,-1.56
2019-01-18T23:59:05.219Z,-1.56
